Time;durP1;ratioP1;P1;durP2;ratioP2;P2;SDS_P1;SDS_P2;PMS_P1;PMS_P2;Temp;Humidity;BMP_temperature;BMP_pressure;BME280_temperature;BME280_humidity;BME280_pressure;Samples;Min_cycle;Max_cycle;Signal;HPM_P1;HPM_P2
2023/03/04 00:00:42;0.00;0.00;0.62;0.00;0.00;0.62;2.73;1.70;;;20.80;21.10;;;;;;2272645;61;20451;-61
2023/03/04 00:03:27;0.00;0.00;0.62;0.00;0.00;0.62;2.73;1.60;;;20.80;21.10;;;;;;2272089;61;20794;-62
2023/03/04 00:06:14;0.00;0.00;0.62;0.00;0.00;0.62;2.50;1.80;;;20.80;21.10;;;;;;2272922;61;20362;-62
2023/03/04 00:08:59;0.00;0.00;0.62;0.00;0.00;0.62;2.47;1.83;;;20.80;21.10;;;;;;2272538;61;20922;-59
2023/03/04 00:11:45;0.00;0.00;0.62;0.00;0.00;0.62;1.83;1.37;;;20.80;21.10;;;;;;2272401;61;20928;-63
2023/03/04 00:14:30;0.00;0.00;0.62;0.00;0.00;0.62;2.00;1.60;;;20.80;21.10;;;;;;2272830;61;20475;-59
2023/03/04 00:17:12;0.00;0.00;0.62;0.00;0.00;0.62;2.10;1.60;;;20.80;21.10;;;;;;2272706;61;20352;-60
2023/03/04 00:19:57;0.00;0.00;0.62;0.00;0.00;0.62;2.50;1.50;;;20.80;21.10;;;;;;2272886;61;20902;-60
2023/03/04 00:22:41;0.00;0.00;0.62;0.00;0.00;0.62;2.27;1.37;;;20.80;21.10;;;;;;2272741;61;20426;-64
2023/03/04 00:25:26;0.00;0.00;0.62;0.00;0.00;0.62;1.90;1.33;;;20.80;21.70;;;;;;2272075;61;20354;-63
2023/03/04 00:28:12;0.00;0.00;0.62;0.00;0.00;0.62;2.77;1.40;;;20.80;21.20;;;;;;2273001;61;20425;-65
2023/03/04 00:30:57;0.00;0.00;0.62;0.00;0.00;0.62;2.30;1.70;;;20.80;21.10;;;;;;2269421;61;20359;-62
2023/03/04 00:33:43;0.00;0.00;0.62;0.00;0.00;0.62;2.57;1.33;;;20.80;21.10;;;;;;2271674;61;20409;-61
2023/03/04 00:36:27;0.00;0.00;0.62;0.00;0.00;0.62;1.90;1.33;;;20.80;21.10;;;;;;2273033;61;20468;-63
2023/03/04 00:39:14;0.00;0.00;0.62;0.00;0.00;0.62;2.50;1.30;;;20.80;21.10;;;;;;2269194;61;20403;-60
2023/03/04 00:41:59;0.00;0.00;0.62;0.00;0.00;0.62;2.13;1.50;;;20.80;21.10;;;;;;2272533;61;20467;-62
2023/03/04 00:44:45;0.00;0.00;0.62;0.00;0.00;0.62;1.90;1.50;;;20.80;21.10;;;;;;2272923;61;20378;-60
2023/03/04 00:47:30;0.00;0.00;0.62;0.00;0.00;0.62;1.83;1.20;;;20.80;21.10;;;;;;2272014;61;20455;-63
2023/03/04 00:50:15;0.00;0.00;0.62;0.00;0.00;0.62;3.13;1.40;;;20.80;21.10;;;;;;2272454;61;20438;-62
2023/03/04 00:53:00;0.00;0.00;0.62;0.00;0.00;0.62;1.83;1.30;;;20.80;21.10;;;;;;2273014;60;20420;-62
2023/03/04 00:55:46;0.00;0.00;0.62;0.00;0.00;0.62;2.83;1.60;;;20.80;21.10;;;;;;2272152;61;20358;-63
2023/03/04 00:58:31;0.00;0.00;0.62;0.00;0.00;0.62;2.00;1.20;;;20.80;21.20;;;;;;2272317;61;20448;-62
2023/03/04 01:01:17;0.00;0.00;0.62;0.00;0.00;0.62;2.23;1.50;;;20.80;21.20;;;;;;2272428;61;20758;-60
2023/03/04 01:04:03;0.00;0.00;0.62;0.00;0.00;0.62;3.30;1.30;;;20.80;21.10;;;;;;2268971;61;20398;-61
2023/03/04 01:06:48;0.00;0.00;0.62;0.00;0.00;0.62;3.10;1.60;;;20.80;21.10;;;;;;2272750;61;20366;-62
2023/03/04 01:09:33;0.00;0.00;0.62;0.00;0.00;0.62;2.00;1.40;;;20.80;21.10;;;;;;2271696;61;20355;-60
2023/03/04 01:12:18;0.00;0.00;0.62;0.00;0.00;0.62;2.40;1.53;;;20.80;21.10;;;;;;2272576;60;20346;-61
2023/03/04 01:15:03;0.00;0.00;0.62;0.00;0.00;0.62;1.70;1.00;;;20.80;21.10;;;;;;2272605;61;20405;-62
2023/03/04 01:17:49;0.00;0.00;0.62;0.00;0.00;0.62;1.70;1.00;;;20.80;21.10;;;;;;2272036;61;20362;-63
2023/03/04 01:20:34;0.00;0.00;0.62;0.00;0.00;0.62;1.97;1.27;;;20.80;21.10;;;;;;2272312;61;20390;-63
2023/03/04 01:23:20;0.00;0.00;0.62;0.00;0.00;0.62;2.03;1.20;;;20.80;21.10;;;;;;2271776;61;20441;-62
2023/03/04 01:26:05;0.00;0.00;0.62;0.00;0.00;0.62;2.13;1.27;;;20.80;21.10;;;;;;2272659;61;20676;-62
2023/03/04 01:28:51;0.00;0.00;0.62;0.00;0.00;0.62;2.00;1.40;;;20.80;21.10;;;;;;2272525;61;20399;-65
2023/03/04 01:31:35;0.00;0.00;0.62;0.00;0.00;0.62;2.30;1.47;;;20.80;21.10;;;;;;2271979;61;21531;-61
2023/03/04 01:34:22;0.00;0.00;0.62;0.00;0.00;0.62;1.97;1.00;;;20.70;21.10;;;;;;2272644;61;20832;-60
2023/03/04 01:37:06;0.00;0.00;0.62;0.00;0.00;0.62;2.50;1.33;;;20.70;21.10;;;;;;2272168;61;20410;-63
2023/03/04 01:39:51;0.00;0.00;0.62;0.00;0.00;0.62;2.13;1.23;;;20.70;21.10;;;;;;2271272;61;20400;-65
2023/03/04 01:42:36;0.00;0.00;0.62;0.00;0.00;0.62;2.13;1.30;;;20.80;21.10;;;;;;2268793;61;20464;-65
2023/03/04 01:45:21;0.00;0.00;0.62;0.00;0.00;0.62;1.70;1.00;;;20.70;21.60;;;;;;2272207;61;20409;-65
2023/03/04 01:48:08;0.00;0.00;0.62;0.00;0.00;0.62;1.70;1.10;;;20.70;21.10;;;;;;2271883;61;20910;-65
2023/03/04 01:50:54;0.00;0.00;0.62;0.00;0.00;0.62;2.63;1.17;;;20.70;21.10;;;;;;2271852;61;20458;-65
2023/03/04 01:53:39;0.00;0.00;0.62;0.00;0.00;0.62;1.60;0.90;;;20.70;21.10;;;;;;2268220;61;20709;-65
2023/03/04 01:56:28;0.00;0.00;0.62;0.00;0.00;0.62;1.77;1.00;;;20.70;21.10;;;;;;2269009;61;20358;-65
2023/03/04 01:59:17;0.00;0.00;0.62;0.00;0.00;0.62;1.80;1.17;;;20.70;21.10;;;;;;2268687;61;20444;-65
2023/03/04 02:02:02;0.00;0.00;0.62;0.00;0.00;0.62;1.90;0.90;;;20.70;21.10;;;;;;2271635;61;20760;-68
2023/03/04 02:04:47;0.00;0.00;0.62;0.00;0.00;0.62;2.30;1.17;;;20.70;21.10;;;;;;2271846;61;20443;-65
2023/03/04 02:07:33;0.00;0.00;0.62;0.00;0.00;0.62;1.70;0.90;;;20.70;21.10;;;;;;2272425;61;20412;-65
2023/03/04 02:10:19;0.00;0.00;0.62;0.00;0.00;0.62;2.67;1.30;;;20.70;21.10;;;;;;2271503;61;20486;-67
2023/03/04 02:13:05;0.00;0.00;0.62;0.00;0.00;0.62;1.47;0.90;;;20.70;21.10;;;;;;2272033;61;20802;-65
2023/03/04 02:15:49;0.00;0.00;0.62;0.00;0.00;0.62;1.77;1.00;;;20.70;21.10;;;;;;2271275;61;20366;-66
2023/03/04 02:18:34;0.00;0.00;0.62;0.00;0.00;0.62;1.90;1.10;;;20.70;21.10;;;;;;2272238;61;20463;-65
2023/03/04 02:21:24;0.00;0.00;0.62;0.00;0.00;0.62;1.40;1.00;;;20.70;21.10;;;;;;2268794;61;20752;-64
2023/03/04 02:24:16;0.00;0.00;0.62;0.00;0.00;0.62;1.70;0.90;;;20.70;21.10;;;;;;2271143;61;20397;-66
2023/03/04 02:27:03;0.00;0.00;0.62;0.00;0.00;0.62;1.97;1.03;;;20.70;21.10;;;;;;2269119;61;20366;-66
2023/03/04 02:29:48;0.00;0.00;0.62;0.00;0.00;0.62;1.67;1.03;;;20.70;21.10;;;;;;2271303;61;20450;-65
2023/03/04 02:32:33;0.00;0.00;0.62;0.00;0.00;0.62;1.80;1.00;;;20.70;21.10;;;;;;2271277;61;20351;-64
2023/03/04 02:35:20;0.00;0.00;0.62;0.00;0.00;0.62;2.83;1.30;;;20.70;21.10;;;;;;2271734;61;20358;-65
2023/03/04 02:38:05;0.00;0.00;0.62;0.00;0.00;0.62;1.87;1.10;;;20.70;21.10;;;;;;2271557;61;20362;-65
2023/03/04 02:40:53;0.00;0.00;0.62;0.00;0.00;0.62;1.80;1.00;;;20.70;21.10;;;;;;2271353;61;20452;-64
2023/03/04 02:43:42;0.00;0.00;0.62;0.00;0.00;0.62;1.70;1.07;;;20.70;21.10;;;;;;2271951;61;20394;-66
2023/03/04 02:46:27;0.00;0.00;0.62;0.00;0.00;0.62;1.60;0.90;;;20.70;21.10;;;;;;2270942;61;21001;-64
2023/03/04 02:49:12;0.00;0.00;0.62;0.00;0.00;0.62;1.80;0.93;;;20.70;21.10;;;;;;2268391;61;20358;-65
2023/03/04 02:52:03;0.00;0.00;0.62;0.00;0.00;0.62;2.23;0.83;;;20.70;21.10;;;;;;2272415;61;20358;-65
2023/03/04 02:54:49;0.00;0.00;0.62;0.00;0.00;0.62;1.63;1.07;;;20.70;21.10;;;;;;2268274;61;20374;-66
2023/03/04 02:57:35;0.00;0.00;0.62;0.00;0.00;0.62;1.67;0.90;;;20.70;21.10;;;;;;2268990;61;20452;-68
2023/03/04 03:00:21;0.00;0.00;0.62;0.00;0.00;0.62;1.87;1.27;;;20.70;21.10;;;;;;2271018;61;20362;-70
2023/03/04 03:03:06;0.00;0.00;0.62;0.00;0.00;0.62;1.53;0.97;;;20.70;21.10;;;;;;2268713;61;20389;-65
2023/03/04 03:05:54;0.00;0.00;0.62;0.00;0.00;0.62;1.93;0.83;;;20.70;21.10;;;;;;2272088;61;20362;-65
2023/03/04 03:08:38;0.00;0.00;0.62;0.00;0.00;0.62;1.80;1.10;;;20.70;21.10;;;;;;2268097;61;20412;-64
2023/03/04 03:11:23;0.00;0.00;0.62;0.00;0.00;0.62;1.50;0.87;;;20.70;21.20;;;;;;2268439;61;20355;-66
2023/03/04 03:14:09;0.00;0.00;0.62;0.00;0.00;0.62;1.60;0.83;;;20.70;21.10;;;;;;2268779;61;20398;-64
2023/03/04 03:16:55;0.00;0.00;0.62;0.00;0.00;0.62;2.20;1.30;;;20.70;21.10;;;;;;2271798;60;20432;-65
2023/03/04 03:19:39;0.00;0.00;0.62;0.00;0.00;0.62;2.23;0.90;;;20.70;21.10;;;;;;2272523;61;20374;-63
2023/03/04 03:22:25;0.00;0.00;0.62;0.00;0.00;0.62;1.33;0.73;;;20.70;21.10;;;;;;2268615;61;20390;-65
2023/03/04 03:25:13;0.00;0.00;0.62;0.00;0.00;0.62;1.43;0.70;;;20.70;21.20;;;;;;2269346;61;20493;-66
2023/03/04 03:27:58;0.00;0.00;0.62;0.00;0.00;0.62;2.00;0.97;;;20.70;21.10;;;;;;2269815;61;20359;-65
2023/03/04 03:30:43;0.00;0.00;0.62;0.00;0.00;0.62;1.43;0.80;;;20.70;21.20;;;;;;2268212;61;20779;-66
2023/03/04 03:33:29;0.00;0.00;0.62;0.00;0.00;0.62;1.60;0.90;;;20.70;21.10;;;;;;2272572;61;20392;-65
2023/03/04 03:36:14;0.00;0.00;0.62;0.00;0.00;0.62;1.53;0.73;;;20.70;21.10;;;;;;2272631;61;20405;-67
2023/03/04 03:38:58;0.00;0.00;0.62;0.00;0.00;0.62;1.40;0.77;;;20.70;21.10;;;;;;2272001;61;20804;-64
2023/03/04 03:41:43;0.00;0.00;0.62;0.00;0.00;0.62;1.73;0.90;;;20.70;21.10;;;;;;2272825;61;20367;-66
2023/03/04 03:44:28;0.00;0.00;0.62;0.00;0.00;0.62;1.53;0.80;;;20.70;21.10;;;;;;2271997;61;20503;-65
2023/03/04 03:47:12;0.00;0.00;0.62;0.00;0.00;0.62;1.53;0.80;;;20.70;21.10;;;;;;2272734;61;20355;-65
2023/03/04 03:49:58;0.00;0.00;0.62;0.00;0.00;0.62;2.07;0.90;;;20.70;21.10;;;;;;2272139;61;20796;-66
2023/03/04 03:52:43;0.00;0.00;0.62;0.00;0.00;0.62;1.43;0.77;;;20.70;21.20;;;;;;2271839;61;20362;-68
2023/03/04 03:55:28;0.00;0.00;0.62;0.00;0.00;0.62;1.40;0.83;;;20.70;21.10;;;;;;2272582;61;20365;-66
2023/03/04 03:58:13;0.00;0.00;0.62;0.00;0.00;0.62;1.50;0.90;;;20.60;21.00;;;;;;2269304;61;20385;-65
2023/03/04 04:00:58;0.00;0.00;0.62;0.00;0.00;0.62;1.40;0.80;;;20.60;21.10;;;;;;2271439;61;20389;-66
2023/03/04 04:03:42;0.00;0.00;0.62;0.00;0.00;0.62;1.50;0.70;;;20.70;21.20;;;;;;2272335;61;20398;-66
2023/03/04 04:06:28;0.00;0.00;0.62;0.00;0.00;0.62;2.30;1.50;;;20.60;21.10;;;;;;2272506;61;20749;-66
2023/03/04 04:09:13;0.00;0.00;0.62;0.00;0.00;0.62;1.90;0.90;;;20.60;21.10;;;;;;2272052;61;20358;-65
2023/03/04 04:11:58;0.00;0.00;0.62;0.00;0.00;0.62;1.33;0.73;;;20.70;21.20;;;;;;2272287;61;20421;-65
2023/03/04 04:18:02;0.00;0.00;0.62;0.00;0.00;0.62;1.80;1.00;;;20.60;21.10;;;;;;2273830;61;20366;-66
2023/03/04 04:20:46;0.00;0.00;0.62;0.00;0.00;0.62;1.90;0.93;;;20.60;21.10;;;;;;2272368;61;20416;-65
2023/03/04 04:23:33;0.00;0.00;0.62;0.00;0.00;0.62;2.27;0.90;;;20.60;21.10;;;;;;2270223;61;20529;-65
2023/03/04 04:26:17;0.00;0.00;0.62;0.00;0.00;0.62;2.03;0.90;;;20.70;21.20;;;;;;2268248;61;20359;-65
2023/03/04 04:29:02;0.00;0.00;0.62;0.00;0.00;0.62;1.47;0.77;;;20.60;21.10;;;;;;2267217;61;20359;-65
2023/03/04 04:31:47;0.00;0.00;0.62;0.00;0.00;0.62;4.57;0.90;;;20.60;21.00;;;;;;2268287;61;20363;-66
2023/03/04 04:34:32;0.00;0.00;0.62;0.00;0.00;0.62;1.53;0.87;;;20.60;21.10;;;;;;2265007;61;20432;-66
2023/03/04 04:37:17;0.00;0.00;0.62;0.00;0.00;0.62;1.57;0.90;;;20.60;21.00;;;;;;2267914;61;20397;-65
2023/03/04 04:40:04;0.00;0.00;0.62;0.00;0.00;0.62;1.50;0.90;;;20.60;21.10;;;;;;2267989;61;20883;-66
2023/03/04 04:42:49;0.00;0.00;0.62;0.00;0.00;0.62;1.70;0.80;;;20.60;21.10;;;;;;2268358;61;20937;-66
2023/03/04 04:45:34;0.00;0.00;0.62;0.00;0.00;0.62;1.43;0.70;;;20.70;21.20;;;;;;2267979;61;20366;-66
2023/03/04 04:48:19;0.00;0.00;0.62;0.00;0.00;0.62;1.53;0.70;;;20.60;21.10;;;;;;2268360;61;20414;-64
2023/03/04 04:51:04;0.00;0.00;0.62;0.00;0.00;0.62;1.53;0.60;;;20.60;21.10;;;;;;2264514;61;20459;-65
2023/03/04 04:53:49;0.00;0.00;0.62;0.00;0.00;0.62;1.60;0.80;;;20.60;21.10;;;;;;2268190;61;20398;-65
2023/03/04 04:56:35;0.00;0.00;0.62;0.00;0.00;0.62;1.30;0.70;;;20.60;21.00;;;;;;2268239;61;20367;-65
2023/03/04 04:59:20;0.00;0.00;0.62;0.00;0.00;0.62;1.87;0.80;;;20.60;21.10;;;;;;2266925;61;20367;-65
2023/03/04 05:02:05;0.00;0.00;0.62;0.00;0.00;0.62;1.53;0.70;;;20.60;21.10;;;;;;2268304;61;20455;-65
2023/03/04 05:04:49;0.00;0.00;0.62;0.00;0.00;0.62;1.40;0.70;;;20.60;21.10;;;;;;2268319;61;20403;-66
2023/03/04 05:07:34;0.00;0.00;0.62;0.00;0.00;0.62;1.20;0.60;;;20.60;21.10;;;;;;2267591;61;20359;-66
2023/03/04 05:10:19;0.00;0.00;0.62;0.00;0.00;0.62;1.30;0.70;;;20.60;21.10;;;;;;2264692;61;21001;-64
2023/03/04 05:13:05;0.00;0.00;0.62;0.00;0.00;0.62;1.70;0.80;;;20.60;21.10;;;;;;2267737;61;20433;-66
2023/03/04 05:15:52;0.00;0.00;0.62;0.00;0.00;0.62;1.87;0.93;;;20.60;21.10;;;;;;2268309;61;20451;-65
2023/03/04 05:18:36;0.00;0.00;0.62;0.00;0.00;0.62;1.37;0.80;;;20.60;21.10;;;;;;2270619;61;20425;-65
2023/03/04 05:21:21;0.00;0.00;0.62;0.00;0.00;0.62;2.37;0.77;;;20.60;21.10;;;;;;2267290;61;20379;-65
2023/03/04 05:24:06;0.00;0.00;0.62;0.00;0.00;0.62;1.70;0.70;;;20.60;21.10;;;;;;2267900;61;20441;-66
2023/03/04 05:26:51;0.00;0.00;0.62;0.00;0.00;0.62;1.50;0.73;;;20.70;21.20;;;;;;2268260;61;20647;-66
2023/03/04 05:29:37;0.00;0.00;0.62;0.00;0.00;0.62;1.50;0.80;;;20.60;21.10;;;;;;2266585;61;20414;-66
2023/03/04 05:32:21;0.00;0.00;0.62;0.00;0.00;0.62;1.93;0.93;;;20.60;21.70;;;;;;2268161;61;20292;-66
2023/03/04 05:35:07;0.00;0.00;0.62;0.00;0.00;0.62;2.47;0.97;;;20.70;21.10;;;;;;2270319;61;20367;-64
2023/03/04 05:37:52;0.00;0.00;0.62;0.00;0.00;0.62;1.30;0.70;;;20.70;21.10;;;;;;2264515;61;20362;-65
2023/03/04 05:40:37;0.00;0.00;0.62;0.00;0.00;0.62;1.67;0.80;;;20.70;21.10;;;;;;2267893;61;20363;-67
2023/03/04 05:43:22;0.00;0.00;0.62;0.00;0.00;0.62;1.47;0.70;;;20.70;21.10;;;;;;2287144;39;20410;-65
2023/03/04 05:46:13;0.00;0.00;0.62;0.00;0.00;0.62;1.60;0.73;;;20.70;21.10;;;;;;2264238;61;20905;-65
2023/03/04 05:48:58;0.00;0.00;0.62;0.00;0.00;0.62;1.30;0.67;;;20.70;21.10;;;;;;2263446;61;20480;-63
2023/03/04 05:51:43;0.00;0.00;0.62;0.00;0.00;0.62;1.40;0.80;;;20.60;21.00;;;;;;2263306;61;20428;-64
2023/03/04 05:54:28;0.00;0.00;0.62;0.00;0.00;0.62;1.43;0.90;;;20.70;21.10;;;;;;2314077;40;20947;-65
2023/03/04 05:57:12;0.00;0.00;0.62;0.00;0.00;0.62;1.30;0.70;;;20.70;21.10;;;;;;2263655;61;20376;-66
2023/03/04 05:59:57;0.00;0.00;0.62;0.00;0.00;0.62;1.40;0.70;;;20.60;21.00;;;;;;2263275;61;20457;-65
2023/03/04 06:02:44;0.00;0.00;0.62;0.00;0.00;0.62;1.60;0.77;;;20.60;21.00;;;;;;2264418;61;20415;-64
2023/03/04 06:05:28;0.00;0.00;0.62;0.00;0.00;0.62;1.70;0.80;;;20.60;21.00;;;;;;2267144;61;20383;-63
2023/03/04 06:08:13;0.00;0.00;0.62;0.00;0.00;0.62;1.30;0.70;;;20.60;21.00;;;;;;2268405;61;20915;-64
2023/03/04 06:10:58;0.00;0.00;0.62;0.00;0.00;0.62;1.40;0.77;;;20.60;21.00;;;;;;2267680;61;21043;-66
2023/03/04 06:13:43;0.00;0.00;0.62;0.00;0.00;0.62;2.13;0.70;;;20.60;21.00;;;;;;2267254;61;20811;-63
2023/03/04 06:16:28;0.00;0.00;0.62;0.00;0.00;0.62;1.30;0.70;;;20.60;21.00;;;;;;2268168;61;20383;-64
2023/03/04 06:19:14;0.00;0.00;0.62;0.00;0.00;0.62;1.30;0.63;;;20.60;21.10;;;;;;2267535;61;20367;-64
2023/03/04 06:21:59;0.00;0.00;0.62;0.00;0.00;0.62;1.50;0.70;;;20.60;21.10;;;;;;2267933;61;20517;-63
2023/03/04 06:24:44;0.00;0.00;0.62;0.00;0.00;0.62;1.33;0.70;;;20.60;21.10;;;;;;2267942;61;20370;-64
2023/03/04 06:27:28;0.00;0.00;0.62;0.00;0.00;0.62;1.50;0.80;;;20.60;21.10;;;;;;2266860;61;20386;-64
2023/03/04 06:30:14;0.00;0.00;0.62;0.00;0.00;0.62;1.40;0.70;;;20.60;21.10;;;;;;2267886;61;20911;-65
2023/03/04 06:32:59;0.00;0.00;0.62;0.00;0.00;0.62;1.60;0.80;;;20.60;21.10;;;;;;2267893;61;20506;-66
2023/03/04 06:35:45;0.00;0.00;0.62;0.00;0.00;0.62;1.20;0.60;;;20.60;21.10;;;;;;2267364;61;20404;-66
2023/03/04 06:38:30;0.00;0.00;0.62;0.00;0.00;0.62;1.30;0.60;;;20.60;21.20;;;;;;2268181;61;20403;-68
2023/03/04 06:41:14;0.00;0.00;0.62;0.00;0.00;0.62;2.00;0.83;;;20.60;21.10;;;;;;2268176;61;20367;-64
2023/03/04 06:43:59;0.00;0.00;0.62;0.00;0.00;0.62;1.50;0.70;;;20.60;21.10;;;;;;2267342;61;20381;-64
2023/03/04 06:46:44;0.00;0.00;0.62;0.00;0.00;0.62;1.30;0.70;;;20.60;21.20;;;;;;2267640;61;20426;-66
2023/03/04 06:49:29;0.00;0.00;0.62;0.00;0.00;0.62;1.40;0.77;;;20.60;21.10;;;;;;2266926;61;20367;-66
2023/03/04 06:52:15;0.00;0.00;0.62;0.00;0.00;0.62;1.70;0.70;;;20.60;21.10;;;;;;2268725;61;20433;-66
2023/03/04 06:55:00;0.00;0.00;0.62;0.00;0.00;0.62;1.30;0.70;;;20.60;21.00;;;;;;2268633;61;20802;-66
2023/03/04 06:57:45;0.00;0.00;0.62;0.00;0.00;0.62;1.47;0.80;;;20.60;21.00;;;;;;2268050;61;20414;-66
2023/03/04 07:00:30;0.00;0.00;0.62;0.00;0.00;0.62;2.07;0.70;;;20.60;21.10;;;;;;2268218;61;20385;-66
2023/03/04 07:03:14;0.00;0.00;0.62;0.00;0.00;0.62;1.40;0.80;;;20.60;21.10;;;;;;2268689;61;20818;-66
2023/03/04 07:05:59;0.00;0.00;0.62;0.00;0.00;0.62;1.20;0.60;;;20.60;21.10;;;;;;2268138;61;20441;-67
2023/03/04 07:08:47;0.00;0.00;0.62;0.00;0.00;0.62;1.50;0.67;;;20.60;21.10;;;;;;2268616;61;20925;-65
2023/03/04 07:11:32;0.00;0.00;0.62;0.00;0.00;0.62;1.30;0.80;;;20.60;21.10;;;;;;2268439;61;20374;-65
2023/03/04 07:14:16;0.00;0.00;0.62;0.00;0.00;0.62;1.50;0.80;;;20.60;21.10;;;;;;2268645;61;20382;-65
2023/03/04 07:17:02;0.00;0.00;0.62;0.00;0.00;0.62;1.93;0.60;;;20.60;21.10;;;;;;2268546;61;20363;-65
2023/03/04 07:19:46;0.00;0.00;0.62;0.00;0.00;0.62;1.30;0.60;;;20.60;21.10;;;;;;2267645;61;20362;-66
2023/03/04 07:22:31;0.00;0.00;0.62;0.00;0.00;0.62;1.30;0.60;;;20.60;21.10;;;;;;2268616;61;20856;-66
2023/03/04 07:25:17;0.00;0.00;0.62;0.00;0.00;0.62;1.30;0.60;;;20.60;21.10;;;;;;2268441;61;20379;-64
2023/03/04 07:28:01;0.00;0.00;0.62;0.00;0.00;0.62;1.40;0.70;;;20.60;21.20;;;;;;2268102;61;20823;-65
2023/03/04 07:30:46;0.00;0.00;0.62;0.00;0.00;0.62;1.53;0.70;;;20.60;21.10;;;;;;2268272;61;20402;-71
2023/03/04 07:33:31;0.00;0.00;0.62;0.00;0.00;0.62;1.30;0.60;;;20.60;21.10;;;;;;2268044;61;20437;-69
2023/03/04 07:36:18;0.00;0.00;0.62;0.00;0.00;0.62;1.40;0.70;;;20.60;21.10;;;;;;2268202;61;20930;-67
2023/03/04 07:39:04;0.00;0.00;0.62;0.00;0.00;0.62;2.07;0.60;;;20.60;21.10;;;;;;2268318;61;20427;-65
2023/03/04 07:41:51;0.00;0.00;0.62;0.00;0.00;0.62;1.30;0.60;;;20.60;21.10;;;;;;2268052;61;20397;-64
2023/03/04 07:44:35;0.00;0.00;0.62;0.00;0.00;0.62;1.50;0.70;;;20.60;21.10;;;;;;2268454;61;20403;-66
2023/03/04 07:47:20;0.00;0.00;0.62;0.00;0.00;0.62;1.60;0.80;;;20.60;21.20;;;;;;2268749;61;20367;-63
2023/03/04 07:50:06;0.00;0.00;0.62;0.00;0.00;0.62;1.30;0.70;;;20.60;21.20;;;;;;2267741;61;20363;-66
2023/03/04 07:52:50;0.00;0.00;0.62;0.00;0.00;0.62;1.50;0.60;;;20.60;21.20;;;;;;2268285;61;20847;-63
2023/03/04 07:55:35;0.00;0.00;0.62;0.00;0.00;0.62;1.30;0.60;;;20.60;21.20;;;;;;2268099;61;20394;-64
2023/03/04 07:58:21;0.00;0.00;0.62;0.00;0.00;0.62;1.30;0.60;;;20.60;21.20;;;;;;2268223;61;20377;-61
2023/03/04 08:01:11;0.00;0.00;0.62;0.00;0.00;0.62;1.40;0.70;;;20.60;21.20;;;;;;2268199;61;20910;-63
2023/03/04 08:03:56;0.00;0.00;0.62;0.00;0.00;0.62;2.30;0.97;;;20.60;21.20;;;;;;2267612;61;21017;-64
2023/03/04 08:06:41;0.00;0.00;0.62;0.00;0.00;0.62;1.30;0.70;;;20.60;21.20;;;;;;2268583;61;20441;-66
2023/03/04 08:09:26;0.00;0.00;0.62;0.00;0.00;0.62;1.50;0.87;;;20.60;21.20;;;;;;2268275;61;20413;-66
2023/03/04 08:12:11;0.00;0.00;0.62;0.00;0.00;0.62;1.83;0.70;;;20.60;21.20;;;;;;2267568;61;20370;-66
2023/03/04 08:14:58;0.00;0.00;0.62;0.00;0.00;0.62;1.80;0.70;;;20.60;21.20;;;;;;2268378;61;20379;-70
2023/03/04 08:17:42;0.00;0.00;0.62;0.00;0.00;0.62;1.63;0.70;;;20.60;21.20;;;;;;2268157;61;20363;-66
2023/03/04 08:20:29;0.00;0.00;0.62;0.00;0.00;0.62;2.03;0.80;;;20.60;21.20;;;;;;2267732;61;20917;-66
2023/03/04 08:23:14;0.00;0.00;0.62;0.00;0.00;0.62;1.80;0.70;;;20.60;21.20;;;;;;2268297;61;20813;-65
2023/03/04 08:25:59;0.00;0.00;0.62;0.00;0.00;0.62;1.40;0.70;;;20.60;21.20;;;;;;2267777;61;20823;-63
2023/03/04 08:28:44;0.00;0.00;0.62;0.00;0.00;0.62;1.27;0.63;;;20.60;21.20;;;;;;2268540;61;20367;-63
2023/03/04 08:31:31;0.00;0.00;0.62;0.00;0.00;0.62;1.60;0.80;;;20.60;21.20;;;;;;2268400;61;20371;-63
2023/03/04 08:34:18;0.00;0.00;0.62;0.00;0.00;0.62;1.30;0.60;;;20.60;21.20;;;;;;2267403;61;20463;-65
2023/03/04 08:37:03;0.00;0.00;0.62;0.00;0.00;0.62;1.50;0.80;;;20.60;21.20;;;;;;2268546;61;20925;-66
2023/03/04 08:39:47;0.00;0.00;0.62;0.00;0.00;0.62;2.00;1.10;;;20.60;21.20;;;;;;2267974;61;20390;-66
2023/03/04 08:42:32;0.00;0.00;0.62;0.00;0.00;0.62;1.93;1.30;;;20.60;21.20;;;;;;2267832;61;20350;-66
2023/03/04 08:45:17;0.00;0.00;0.62;0.00;0.00;0.62;2.30;1.03;;;20.60;21.20;;;;;;2268393;61;20363;-66
2023/03/04 08:48:04;0.00;0.00;0.62;0.00;0.00;0.62;1.80;1.10;;;20.60;21.20;;;;;;2267095;61;20367;-65
2023/03/04 08:50:49;0.00;0.00;0.62;0.00;0.00;0.62;1.77;1.20;;;20.60;21.20;;;;;;2267736;61;20367;-65
2023/03/04 08:53:34;0.00;0.00;0.62;0.00;0.00;0.62;2.03;1.50;;;20.60;21.20;;;;;;2268293;61;20383;-64
2023/03/04 08:56:19;0.00;0.00;0.62;0.00;0.00;0.62;2.43;1.70;;;20.60;21.20;;;;;;2267464;61;20414;-65
2023/03/04 08:59:04;0.00;0.00;0.62;0.00;0.00;0.62;3.23;1.73;;;20.60;21.20;;;;;;2268030;61;20386;-63
2023/03/04 09:01:48;0.00;0.00;0.62;0.00;0.00;0.62;3.10;2.25;;;20.60;21.20;;;;;;2267359;61;20416;-66
2023/03/04 09:04:35;0.00;0.00;0.62;0.00;0.00;0.62;3.37;2.27;;;20.60;21.30;;;;;;2267187;61;20283;-66
2023/03/04 09:07:20;0.00;0.00;0.62;0.00;0.00;0.62;3.30;2.30;;;20.60;21.20;;;;;;2268173;61;20366;-67
2023/03/04 09:10:06;0.00;0.00;0.62;0.00;0.00;0.62;3.00;2.03;;;20.60;21.20;;;;;;2267557;61;20413;-66
2023/03/04 09:12:51;0.00;0.00;0.62;0.00;0.00;0.62;3.40;2.17;;;20.60;21.10;;;;;;2268139;61;20403;-65
2023/03/04 09:15:36;0.00;0.00;0.62;0.00;0.00;0.62;4.03;2.47;;;20.60;21.10;;;;;;2268057;61;20942;-64
2023/03/04 09:18:23;0.00;0.00;0.62;0.00;0.00;0.62;4.13;2.20;;;20.60;21.20;;;;;;2267532;61;20363;-66
2023/03/04 09:21:10;0.00;0.00;0.62;0.00;0.00;0.62;3.37;2.50;;;20.60;21.20;;;;;;2267553;61;20370;-65
2023/03/04 09:23:55;0.00;0.00;0.62;0.00;0.00;0.62;3.90;3.00;;;20.60;21.20;;;;;;2268020;61;20853;-64
2023/03/04 09:26:40;0.00;0.00;0.62;0.00;0.00;0.62;4.13;2.73;;;20.60;21.20;;;;;;2267751;61;20413;-65
2023/03/04 09:29:25;0.00;0.00;0.62;0.00;0.00;0.62;3.90;2.63;;;20.60;21.20;;;;;;2267749;61;20405;-65
2023/03/04 09:32:09;0.00;0.00;0.62;0.00;0.00;0.62;5.00;3.30;;;20.60;21.20;;;;;;2267981;61;20918;-65
2023/03/04 09:34:54;0.00;0.00;0.62;0.00;0.00;0.62;3.27;2.70;;;20.60;21.20;;;;;;2268648;61;20843;-64
2023/03/04 09:37:40;0.00;0.00;0.62;0.00;0.00;0.62;3.67;2.90;;;20.60;21.20;;;;;;2268221;61;20378;-66
2023/03/04 09:40:29;0.00;0.00;0.62;0.00;0.00;0.62;4.03;2.77;;;20.60;21.20;;;;;;2267232;61;20967;-64
2023/03/04 09:43:22;0.00;0.00;0.62;0.00;0.00;0.62;3.70;2.77;;;20.60;21.30;;;;;;2267635;61;20473;-64
2023/03/04 09:46:13;0.00;0.00;0.62;0.00;0.00;0.62;4.03;2.90;;;20.60;21.30;;;;;;2268273;61;20395;-66
2023/03/04 09:48:58;0.00;0.00;0.62;0.00;0.00;0.62;3.63;3.03;;;20.60;21.40;;;;;;2268390;61;20402;-60
2023/03/04 09:51:53;0.00;0.00;0.62;0.00;0.00;0.62;4.67;3.53;;;20.60;21.40;;;;;;2269609;61;20892;-64
2023/03/04 09:55:03;0.00;0.00;0.62;0.00;0.00;0.62;5.60;3.97;;;20.60;21.40;;;;;;2268325;61;20426;-65
2023/03/04 09:57:52;0.00;0.00;0.62;0.00;0.00;0.62;4.60;3.33;;;20.60;21.40;;;;;;2268411;61;20638;-64
2023/03/04 10:00:42;0.00;0.00;0.62;0.00;0.00;0.62;7.20;4.40;;;20.60;21.50;;;;;;2269598;61;20375;-64
2023/03/04 10:06:40;0.00;0.00;0.62;0.00;0.00;0.62;4.50;3.80;;;20.70;21.50;;;;;;2262851;61;20777;-65
2023/03/04 10:09:28;0.00;0.00;0.62;0.00;0.00;0.62;4.93;4.10;;;20.70;21.50;;;;;;2260936;61;20385;-60
2023/03/04 10:12:19;0.00;0.00;0.62;0.00;0.00;0.62;5.00;3.77;;;20.70;22.10;;;;;;2258267;61;20492;-63
2023/03/04 10:15:16;0.00;0.00;0.62;0.00;0.00;0.62;5.37;4.33;;;20.70;21.50;;;;;;2257618;61;20866;-64
2023/03/04 10:18:10;0.00;0.00;0.62;0.00;0.00;0.62;4.20;3.70;;;20.70;21.60;;;;;;2251739;61;20362;-63
2023/03/04 10:21:00;0.00;0.00;0.62;0.00;0.00;0.62;5.80;4.27;;;20.70;21.50;;;;;;2256026;61;20485;-61
2023/03/04 10:23:46;0.00;0.00;0.62;0.00;0.00;0.62;5.83;4.23;;;20.70;21.60;;;;;;2253133;61;20394;-65
2023/03/04 10:26:32;0.00;0.00;0.62;0.00;0.00;0.62;5.03;3.97;;;20.70;21.60;;;;;;2256783;61;20906;-64
2023/03/04 10:29:20;0.00;0.00;0.62;0.00;0.00;0.62;5.95;4.85;;;20.70;21.60;;;;;;2256661;61;20354;-65
2023/03/04 10:32:11;0.00;0.00;0.62;0.00;0.00;0.62;7.73;5.10;;;20.70;21.80;;;;;;2256224;61;20758;-65
2023/03/04 10:34:55;0.00;0.00;0.62;0.00;0.00;0.62;6.10;4.67;;;20.80;21.70;;;;;;2256995;61;20481;-65
2023/03/04 10:37:48;0.00;0.00;0.62;0.00;0.00;0.62;7.10;5.13;;;20.80;21.70;;;;;;2257223;61;20358;-62
2023/03/04 10:40:38;0.00;0.00;0.62;0.00;0.00;0.62;6.63;5.47;;;20.80;21.90;;;;;;2257199;61;20413;-63
2023/03/04 10:43:24;0.00;0.00;0.62;0.00;0.00;0.62;6.10;5.40;;;20.80;21.90;;;;;;2257065;61;20386;-67
2023/03/04 10:50:22;0.00;0.00;0.62;0.00;0.00;0.62;7.17;6.33;;;20.80;22.00;;;;;;2258322;61;20381;-63
2023/03/04 10:53:32;0.00;0.00;0.62;0.00;0.00;0.62;8.50;6.00;;;20.80;22.00;;;;;;2254444;61;20381;-64
2023/03/04 10:56:36;0.00;0.00;0.62;0.00;0.00;0.62;8.53;5.40;;;20.90;22.10;;;;;;2257077;61;20365;-66
2023/03/04 10:59:49;0.00;0.00;0.62;0.00;0.00;0.62;8.20;5.90;;;20.90;22.10;;;;;;2256590;61;20394;-64
2023/03/04 11:02:36;0.00;0.00;0.62;0.00;0.00;0.62;6.07;5.47;;;20.90;22.20;;;;;;2258453;61;20381;-65
2023/03/04 11:05:31;0.00;0.00;0.62;0.00;0.00;0.62;8.57;6.83;;;20.90;22.20;;;;;;2254596;61;20378;-63